INFORMAÇÕES METEOROLÓGICAS
METAR FOR SBFN
ADDS - METARS form results

(0238 UTC 25 April 2019)
Data provider http://aviationweather.gov/metar/data/
 
Forecast for: SBFN (FERNANDO DE NORO, BR)
Text: TAF SBFN 242200Z 2500/2512 12010KT 9999 BKN017 TN22/2506Z TX29/2512Z
Forecast period: 0000 to 1200 UTC 25 April 2019
Forecast type: FROM: standard forecast or significant change
Winds: from the ESE (120 degrees) at 12 MPH (10 knots; 5.1 m/s)
Visibility: 6 or more miles 10+ km)
Ceiling: 1700 feet AGL
Clouds: broken clouds at 1700 feet AGL
Weather: no significant weather forecast for this period
Text: TEMPO 2508/2510 4000 SHRA BKN010 FEW020TCU RMK PEQ
Forecast period: 0800 to 1000 UTC 25 April 2019
Forecast type: TEMPORARY: The following changes expected for less than half the time period
Visibility: 2.49 miles (4.01 km)
Ceiling: 1000 feet AGL
Clouds: broken clouds at 1000 feet AGL
few clouds at 2000 feet AGL
Weather: SHRA  (rain showers)

 MAPA DO AEROPORTO

 INFORMAÇÕES DA PISTA
Pista 12 Tamanho da pista 6053 ft Largura da pista 148 ft
Elevação da pista 0 ft Ranhura da pista 0 ft Proa da pista 0
Pista 30 Tamanho da pista 6053 ft Largura da pista 148 ft
Elevação da pista 0 ft Ranhura da pista 0 ft Proa da pista 0

 FREQUÊNCIAS DO AEROPORTO
Tipo AFIS Nome NORONHA RD Frequência 125.9 MHZ

 AUXÍLIOS DE NAVEGAÇÃO PRÓXIMOS AO AEROPORTO
Tipo VOR-DME Nome Fernando Frequência 113700 KHZ
Tipo NDB Nome Noronha Frequência 300 KHZ





Powered by Virtual Airlines Manager [v2.6.2]